Updated28/11/2020 9:13pm 
 

Nearby Airport METAR Reports

 

KVSF - Springfield, Vermont, USA
Distance from station: WSW 8mi, 12km
Updated: 11/28/2020 8:54pm
Mist, Clear
Mist, Clear
 Wind from calm
Wind: Calm
Temperature: 30°F , -1°C
Dew Point: 28°F , -2°C
Humidity: 93%
Barometer: 30.00 inHg , 1015.9 hPa
Summary: Mist
Clouds: Clear
Visibility: 6 miles , 10 km
2020/11/29 01:54 KVSF 290154Z AUTO 00000KT 6SM BR CLR M01/M02 A3000 RMK AO2 SLP164 I1000 T10061017
KLEB - Lebanon, New Hampshire, USA
Distance from station: N 18mi, 29km
Updated: 11/28/2020 9:01pm
Mist, Few clouds
Mist, Few clouds
 Wind from S
Wind: S 5 mph , 7 km/h
Temperature: 32°F , 0°C
Wind Chill: 27°F , -3°C
Dew Point: 30°F , -1°C
Humidity: 93%
Barometer: 29.97 inHg , 1014.9 hPa
Summary: Mist
Clouds: Few Clouds
Visibility: 4 miles , 6 km
Cloud details: Few Clouds 100 ft
2020/11/29 02:01 KLEB 290201Z 17004KT 4SM BR FEW001 00/M01 A2997 RMK AO2 T00001011
KRUT - Rutland State, Vermont, USA
Distance from station: WNW 31mi, 50km
Updated: 11/28/2020 8:56pm
Overcast
Overcast
 Wind from calm
Wind: Calm
Temperature: 36°F , 2°C
Dew Point: 28°F , -2°C
Humidity: 75%
Barometer: 30.00 inHg , 1015.9 hPa
Clouds: Overcast
Visibility: 10 miles , 16 km
Cloud details: Overcast 3900 ft
2020/11/29 01:56 KRUT 290156Z AUTO 00000KT 10SM OVC039 02/M02 A3000 RMK AO2 SLP158 T00221017 FZRANO PNO $
 
KEEN - Keene/Dillant, New Hampshire, USA
Distance from station: S 34mi, 55km
Updated: 11/28/2020 8:56pm
Clear
Clear
 Wind from calm
Wind: Calm
Temperature: 28°F , -2°C
Dew Point: 28°F , -2°C
Humidity: 100%
Barometer: 30.01 inHg , 1016.3 hPa
Clouds: Clear
Visibility: 10 miles , 16 km
2020/11/29 01:56 KEEN 290156Z AUTO 00000KT 10SM CLR M02/M02 A3001 RMK AO2 SLP171 T10171017 FZRANO $
K1P1 - Plymouth, New Hampshire, USA
Distance from station: NE 42mi, 67km
Updated: 11/28/2020 8:55pm
Partly cloudy
Partly cloudy
 Wind from WNW
Wind: WNW 6 mph , 9 km/h
Temperature: 34°F , 1°C
Wind Chill: 29°F , -2°C
Dew Point: 32°F , 0°C
Humidity: 93%
Barometer: 29.96 inHg , 1014.6 hPa
Clouds: Partly cloudy
Visibility: 10 miles , 16 km
Cloud details: Partly cloudy 4100 ft
2020/11/29 01:55 K1P1 290155Z AUTO 30005KT 10SM SCT041 01/00 A2996 RMK AO2 T00050004
KAFN - Jaffrey, New Hampshire, USA
Distance from station: SSE 44mi, 70km
Updated: 11/28/2020 8:52pm
Clear
Clear
 Wind from calm
Wind: Calm
Temperature: 39°F , 4°C
Dew Point: 25°F , -4°C
Humidity: 56%
Barometer: 29.97 inHg , 1014.9 hPa
Clouds: Clear
Visibility: 10 miles , 16 km
2020/11/29 01:52 KAFN 290152Z AUTO 00000KT 10SM CLR 04/M04 A2997 RMK AO2 SLP161 T00441039
 
KCON - Concord, New Hampshire, USA
Distance from station: ESE 45mi, 73km
Updated: 11/28/2020 8:51pm
Clear
Clear
 Wind from W
Wind: W 6 mph , 9 km/h
Temperature: 37°F , 3°C
Wind Chill: 32°F , 0°C
Dew Point: 30°F , -1°C
Humidity: 75%
Barometer: 29.97 inHg , 1014.9 hPa
Clouds: Clear
Visibility: 10 miles , 16 km
2020/11/29 01:51 KCON 290151Z AUTO 28005KT 10SM CLR 03/M01 A2997 RMK AO2 SLP153 T00281011
KLCI - Laconia Muni, New Hampshire, USA
Distance from station: ENE 49mi, 80km
Updated: 11/28/2020 8:56pm
Clear
Clear
 Wind from calm
Wind: Calm
Temperature: 34°F , 1°C
Dew Point: 34°F , 1°C
Humidity: 100%
Barometer: 29.96 inHg , 1014.6 hPa
Clouds: Clear
Visibility: 10 miles , 16 km
2020/11/29 01:56 KLCI 290156Z AUTO 00000KT 10SM CLR 01/01 A2996 RMK AO2 SLP150 T00060006 FZRANO
KDDH - Bennington, Vermont, USA
Distance from station: SW 55mi, 89km
Updated: 11/28/2020 8:54pm
Clear
Clear
 Wind from varies
Wind: varies 5 mph , 7 km/h
Temperature: 36°F , 2°C
Wind Chill: 32°F , 0°C
Dew Point: 28°F , -2°C
Humidity: 75%
Barometer: 30.03 inHg , 1016.9 hPa
Clouds: Clear
Visibility: 10 miles , 16 km
2020/11/29 01:54 KDDH 290154Z AUTO VRB04KT 10SM CLR 02/M02 A3003 RMK AO2 SLP172 T00221022
 
K6B0 - Middlebury, Vermont, USA
Distance from station: NW 56mi, 90km
Updated: 11/26/2020 12:55am
NOT Current
Light rain, Overcast
Light rain, Overcast
 Wind from S
Wind: S 3 mph , 6 km/h
Temperature: 43°F , 6°C
Dew Point: 41°F , 5°C
Humidity: 93%
Barometer: 30.12 inHg , 1020 hPa
Summary: Light rain
Clouds: Overcast
Visibility: 7 miles , 11 km
Cloud details: Partly cloudy 1700 ft
Partly cloudy 2700 ft
Overcast 3500 ft
2020/11/26 05:55 K6B0 260555Z AUTO 18003KT 7SM -RA SCT017 SCT027 OVC035 06/05 A3012 RMK AO2 P0004 60011 T00570047 10076 20040
KMHT - Manchester, New Hampshire, USA
Distance from station: ESE 56mi, 90km
Updated: 11/28/2020 8:53pm
Clear
Clear
 Wind from calm
Wind: Calm
Temperature: 37°F , 3°C
Dew Point: 30°F , -1°C
Humidity: 75%
Barometer: 29.97 inHg , 1014.9 hPa
Clouds: Clear
Visibility: 10 miles , 16 km
2020/11/29 01:53 KMHT 290153Z 00000KT 10SM CLR 03/M01 A2997 RMK AO2 SLP164 T00331006
KORE - Orange, Massachusetts, USA
Distance from station: S 56mi, 90km
Updated: 11/28/2020 8:52pm
Clear
Clear
 Wind from WNW
Wind: WNW 5 mph , 7 km/h
Temperature: 37°F , 3°C
Wind Chill: 33°F , 1°C
Dew Point: 28°F , -2°C
Humidity: 70%
Barometer: 30.02 inHg , 1016.6 hPa
Clouds: Clear
Visibility: 10 miles , 16 km
2020/11/29 01:52 KORE 290152Z AUTO 29004KT 10SM CLR 03/M02 A3002 RMK AO2 SLP170 T00331017
 
KMPV - Montpelier/Barre, Vermont, USA
Distance from station: N 58mi, 93km
Updated: 11/28/2020 8:51pm
Mostly cloudy
Mostly cloudy
 Wind from SSE
Wind: SSE 5 mph , 7 km/h
Temperature: 30°F , -1°C
Wind Chill: 25°F , -4°C
Dew Point: 30°F , -1°C
Humidity: 100%
Barometer: 29.98 inHg , 1015.2 hPa
Clouds: Mostly cloudy
Visibility: 10 miles , 16 km
Cloud details: Mostly cloudy 5000 ft
2020/11/29 01:51 KMPV 290151Z AUTO 16004KT 10SM BKN050 M01/M01 A2998 RMK AO2 SLP165 T10061011
KASH - Nashua/Boire Fld, New Hampshire, USA
Distance from station: SE 59mi, 95km
Updated: 11/28/2020 8:56pm
Clear
Clear
 Wind from calm
Wind: Calm
Temperature: 30°F , -1°C
Dew Point: 30°F , -1°C
Humidity: 100%
Barometer: 30.00 inHg , 1015.9 hPa
Clouds: Clear
Visibility: 10 miles , 16 km
2020/11/29 01:56 KASH 290156Z 00000KT 10SM CLR M01/M01 A3000 RMK AO2 SLP164 T10061011
KAQW - North Adams, Massachusetts, USA
Distance from station: SW 62mi, 99km
Updated: 11/28/2020 8:52pm
Clear
Clear
 Wind from W
Wind: W 10 mph , 17 km/h
Temperature: 39°F , 4°C
Wind Chill: 32°F , 0°C
Dew Point: 27°F , -3°C
Humidity: 61%
Barometer: 30.03 inHg , 1016.9 hPa
Clouds: Clear
Visibility: 10 miles , 16 km
2020/11/29 01:52 KAQW 290152Z AUTO 28009KT 10SM CLR 04/M03 A3003 RMK AO2 SLP174 T00391028
 
KGFL - Glens Falls, New York, USA
Distance from station: W 63mi, 101km
Updated: 11/28/2020 8:53pm
Few Clouds
Few Clouds
 Wind from W
Wind: W 6 mph , 9 km/h
Temperature: 39°F , 4°C
Wind Chill: 35°F , 2°C
Dew Point: 28°F , -2°C
Humidity: 65%
Barometer: 30.02 inHg , 1016.6 hPa
Clouds: Few Clouds
Visibility: 10 miles , 16 km
Cloud details: Few Clouds 3800 ft
2020/11/29 01:53 KGFL 290153Z AUTO 26005KT 10SM FEW038 04/M02 A3002 RMK AO2 SLP172 T00391022
KFIT - Fitchburg, Massachusetts, USA
Distance from station: SSE 65mi, 105km
Updated: 11/28/2020 8:52pm
Clear
Clear
 Wind from NW
Wind: NW 7 mph , 11 km/h
Temperature: 36°F , 2°C
Wind Chill: 30°F , -1°C
Dew Point: 30°F , -1°C
Humidity: 81%
Barometer: 30.00 inHg , 1015.9 hPa
Clouds: Clear
Visibility: 10 miles , 16 km
2020/11/29 01:52 KFIT 290152Z AUTO 31006KT 10SM CLR 02/M01 A3000 RMK AO2 SLP160 T00221011
KDAW - Rochester, New Hampshire, USA
Distance from station: E 73mi, 118km
Updated: 11/28/2020 8:51pm
Clear
Clear
 Wind from varies
Wind: varies 3 mph , 6 km/h
Temperature: 39°F , 4°C
Dew Point: 34°F , 1°C
Humidity: 81%
Barometer: 29.95 inHg , 1014.2 hPa
Clouds: Clear
Visibility: 10 miles , 16 km
2020/11/29 01:51 KDAW 290151Z AUTO VRB03KT 10SM CLR 04/01 A2995 RMK AO2 SLP140 T00390011
 
K1V4 - St. Johnsbury, Vermont, USA
Distance from station: NNE 74mi, 119km
Updated: 11/28/2020 8:54pm

 
Temperature: 34°F , 1°C
Dew Point: 34°F , 1°C
Humidity: 100%
Barometer: 29.93 inHg , 1013.5 hPa
2020/11/29 01:54 K1V4 290154Z AUTO 01/01 A2993 RMK AO1 SLP145 T00110006
KLWM - Lawrence, Massachusetts, USA
Distance from station: SE 77mi, 124km
Updated: 11/28/2020 8:54pm
Clear
Clear
 Wind from calm
Wind: Calm
Temperature: 36°F , 2°C
Dew Point: 30°F , -1°C
Humidity: 81%
Barometer: 30.00 inHg , 1015.9 hPa
Clouds: Clear
Visibility: 10 miles , 16 km
2020/11/29 01:54 KLWM 290154Z 00000KT 10SM CLR 02/M01 A3000 RMK AO2 SLP160 T00221006



Flag Counter
free counter page views since 4/29/2009